sensor_id;sensor_type;location;lat;lon;timestamp;P1;durP1;ratioP1;P2;durP2;ratioP2
58414;SDS011;44210;42.706;18.344;2022-08-25T00:00:31;12.32;;;11.23;;
58414;SDS011;44210;42.706;18.344;2022-08-25T00:02:57;12.60;;;11.30;;
58414;SDS011;44210;42.706;18.344;2022-08-25T00:05:24;13.38;;;11.98;;
58414;SDS011;44210;42.706;18.344;2022-08-25T00:07:51;13.07;;;11.77;;
58414;SDS011;44210;42.706;18.344;2022-08-25T00:10:17;12.70;;;11.52;;
58414;SDS011;44210;42.706;18.344;2022-08-25T00:12:44;13.32;;;12.13;;
58414;SDS011;44210;42.706;18.344;2022-08-25T00:15:10;14.23;;;11.52;;
58414;SDS011;44210;42.706;18.344;2022-08-25T00:17:36;13.48;;;12.25;;
58414;SDS011;44210;42.706;18.344;2022-08-25T00:20:03;13.52;;;12.30;;
58414;SDS011;44210;42.706;18.344;2022-08-25T00:22:29;12.90;;;11.63;;
58414;SDS011;44210;42.706;18.344;2022-08-25T00:24:56;13.70;;;12.30;;
58414;SDS011;44210;42.706;18.344;2022-08-25T00:27:22;12.93;;;11.70;;
58414;SDS011;44210;42.706;18.344;2022-08-25T00:29:48;14.80;;;13.27;;
58414;SDS011;44210;42.706;18.344;2022-08-25T00:32:14;13.15;;;11.60;;
58414;SDS011;44210;42.706;18.344;2022-08-25T00:34:42;13.02;;;11.73;;
58414;SDS011;44210;42.706;18.344;2022-08-25T00:37:08;12.68;;;11.55;;
58414;SDS011;44210;42.706;18.344;2022-08-25T00:39:35;12.65;;;11.30;;
58414;SDS011;44210;42.706;18.344;2022-08-25T00:42:01;12.68;;;11.48;;
58414;SDS011;44210;42.706;18.344;2022-08-25T00:44:28;13.30;;;11.88;;
58414;SDS011;44210;42.706;18.344;2022-08-25T00:46:56;13.68;;;12.35;;
58414;SDS011;44210;42.706;18.344;2022-08-25T00:51:57;12.98;;;11.68;;
58414;SDS011;44210;42.706;18.344;2022-08-25T00:56:50;13.48;;;11.88;;
58414;SDS011;44210;42.706;18.344;2022-08-25T00:59:20;14.32;;;12.60;;
58414;SDS011;44210;42.706;18.344;2022-08-25T01:01:47;12.95;;;11.75;;
58414;SDS011;44210;42.706;18.344;2022-08-25T01:04:13;13.52;;;12.30;;
58414;SDS011;44210;42.706;18.344;2022-08-25T01:06:40;14.63;;;11.90;;
58414;SDS011;44210;42.706;18.344;2022-08-25T01:09:08;13.88;;;12.27;;
58414;SDS011;44210;42.706;18.344;2022-08-25T01:11:34;12.48;;;11.10;;
58414;SDS011;44210;42.706;18.344;2022-08-25T01:14:01;13.27;;;12.00;;
58414;SDS011;44210;42.706;18.344;2022-08-25T01:16:31;13.07;;;11.80;;
58414;SDS011;44210;42.706;18.344;2022-08-25T01:18:57;13.57;;;12.27;;
58414;SDS011;44210;42.706;18.344;2022-08-25T01:21:25;13.88;;;12.65;;
58414;SDS011;44210;42.706;18.344;2022-08-25T01:23:52;13.27;;;12.05;;
58414;SDS011;44210;42.706;18.344;2022-08-25T01:26:21;12.85;;;11.65;;
58414;SDS011;44210;42.706;18.344;2022-08-25T01:28:47;15.20;;;12.80;;
58414;SDS011;44210;42.706;18.344;2022-08-25T01:31:34;13.95;;;12.38;;
58414;SDS011;44210;42.706;18.344;2022-08-25T01:34:02;13.40;;;12.05;;
58414;SDS011;44210;42.706;18.344;2022-08-25T01:36:29;14.25;;;12.57;;
58414;SDS011;44210;42.706;18.344;2022-08-25T01:38:55;15.35;;;12.60;;
58414;SDS011;44210;42.706;18.344;2022-08-25T01:44:10;13.45;;;12.23;;
58414;SDS011;44210;42.706;18.344;2022-08-25T01:46:36;13.63;;;12.32;;
58414;SDS011;44210;42.706;18.344;2022-08-25T01:49:02;14.43;;;13.02;;
58414;SDS011;44210;42.706;18.344;2022-08-25T01:51:33;15.10;;;13.60;;
58414;SDS011;44210;42.706;18.344;2022-08-25T01:53:59;15.93;;;13.35;;
58414;SDS011;44210;42.706;18.344;2022-08-25T01:56:26;13.82;;;12.38;;
58414;SDS011;44210;42.706;18.344;2022-08-25T01:58:52;13.32;;;12.05;;
58414;SDS011;44210;42.706;18.344;2022-08-25T02:01:19;15.27;;;13.00;;
58414;SDS011;44210;42.706;18.344;2022-08-25T02:03:47;13.35;;;12.10;;
58414;SDS011;44210;42.706;18.344;2022-08-25T02:06:15;14.38;;;13.00;;
58414;SDS011;44210;42.706;18.344;2022-08-25T02:08:41;14.35;;;12.95;;
58414;SDS011;44210;42.706;18.344;2022-08-25T02:11:12;14.23;;;12.70;;
58414;SDS011;44210;42.706;18.344;2022-08-25T02:13:39;13.88;;;12.55;;
58414;SDS011;44210;42.706;18.344;2022-08-25T02:16:05;14.30;;;12.95;;
58414;SDS011;44210;42.706;18.344;2022-08-25T02:18:32;14.75;;;13.23;;
58414;SDS011;44210;42.706;18.344;2022-08-25T02:20:58;14.25;;;12.93;;
58414;SDS011;44210;42.706;18.344;2022-08-25T02:23:24;14.27;;;12.77;;
58414;SDS011;44210;42.706;18.344;2022-08-25T02:25:51;15.15;;;12.13;;
58414;SDS011;44210;42.706;18.344;2022-08-25T02:28:17;14.60;;;13.07;;
58414;SDS011;44210;42.706;18.344;2022-08-25T02:30:44;14.20;;;12.75;;
58414;SDS011;44210;42.706;18.344;2022-08-25T02:33:12;14.57;;;13.15;;
58414;SDS011;44210;42.706;18.344;2022-08-25T02:35:38;15.27;;;13.65;;
58414;SDS011;44210;42.706;18.344;2022-08-25T02:38:04;16.20;;;13.15;;
58414;SDS011;44210;42.706;18.344;2022-08-25T02:40:31;17.95;;;14.88;;
58414;SDS011;44210;42.706;18.344;2022-08-25T02:42:57;16.58;;;13.30;;
58414;SDS011;44210;42.706;18.344;2022-08-25T02:45:23;14.18;;;12.68;;
58414;SDS011;44210;42.706;18.344;2022-08-25T02:47:49;13.80;;;12.43;;
58414;SDS011;44210;42.706;18.344;2022-08-25T02:50:15;15.65;;;13.07;;
58414;SDS011;44210;42.706;18.344;2022-08-25T02:52:41;14.90;;;13.40;;
58414;SDS011;44210;42.706;18.344;2022-08-25T02:55:09;15.07;;;13.57;;
58414;SDS011;44210;42.706;18.344;2022-08-25T02:57:38;14.18;;;12.88;;
58414;SDS011;44210;42.706;18.344;2022-08-25T03:00:04;14.00;;;12.20;;
58414;SDS011;44210;42.706;18.344;2022-08-25T03:02:30;15.60;;;13.27;;
58414;SDS011;44210;42.706;18.344;2022-08-25T03:04:56;14.43;;;12.98;;
58414;SDS011;44210;42.706;18.344;2022-08-25T03:07:23;14.20;;;12.68;;
58414;SDS011;44210;42.706;18.344;2022-08-25T03:09:49;15.27;;;13.75;;
58414;SDS011;44210;42.706;18.344;2022-08-25T03:12:15;14.30;;;12.70;;
58414;SDS011;44210;42.706;18.344;2022-08-25T03:14:41;15.93;;;14.18;;
58414;SDS011;44210;42.706;18.344;2022-08-25T03:17:07;17.58;;;14.07;;
58414;SDS011;44210;42.706;18.344;2022-08-25T03:19:33;14.82;;;13.30;;
58414;SDS011;44210;42.706;18.344;2022-08-25T03:21:59;14.55;;;13.10;;
58414;SDS011;44210;42.706;18.344;2022-08-25T03:24:25;17.35;;;13.32;;
58414;SDS011;44210;42.706;18.344;2022-08-25T03:26:52;15.05;;;12.73;;
58414;SDS011;44210;42.706;18.344;2022-08-25T03:29:22;17.20;;;12.85;;
58414;SDS011;44210;42.706;18.344;2022-08-25T03:31:49;15.07;;;13.48;;
58414;SDS011;44210;42.706;18.344;2022-08-25T03:34:16;14.73;;;12.43;;
58414;SDS011;44210;42.706;18.344;2022-08-25T03:36:44;14.20;;;12.73;;
58414;SDS011;44210;42.706;18.344;2022-08-25T03:39:10;13.95;;;12.55;;
58414;SDS011;44210;42.706;18.344;2022-08-25T03:41:37;13.48;;;12.10;;
58414;SDS011;44210;42.706;18.344;2022-08-25T03:44:04;15.32;;;13.63;;
58414;SDS011;44210;42.706;18.344;2022-08-25T03:46:32;14.48;;;12.95;;
58414;SDS011;44210;42.706;18.344;2022-08-25T03:49:00;14.00;;;12.68;;
58414;SDS011;44210;42.706;18.344;2022-08-25T03:51:31;13.32;;;11.98;;
58414;SDS011;44210;42.706;18.344;2022-08-25T03:53:58;13.98;;;12.52;;
58414;SDS011;44210;42.706;18.344;2022-08-25T03:56:25;13.13;;;11.80;;
58414;SDS011;44210;42.706;18.344;2022-08-25T03:58:51;13.27;;;11.23;;
58414;SDS011;44210;42.706;18.344;2022-08-25T04:01:18;15.27;;;13.18;;
58414;SDS011;44210;42.706;18.344;2022-08-25T04:03:44;12.82;;;11.57;;
58414;SDS011;44210;42.706;18.344;2022-08-25T04:06:11;14.07;;;12.10;;
58414;SDS011;44210;42.706;18.344;2022-08-25T04:08:37;15.23;;;13.32;;
58414;SDS011;44210;42.706;18.344;2022-08-25T04:11:21;13.70;;;12.23;;
58414;SDS011;44210;42.706;18.344;2022-08-25T04:13:48;22.30;;;12.63;;
58414;SDS011;44210;42.706;18.344;2022-08-25T04:16:18;22.17;;;14.38;;
58414;SDS011;44210;42.706;18.344;2022-08-25T04:18:44;16.00;;;13.35;;
58414;SDS011;44210;42.706;18.344;2022-08-25T04:21:11;15.77;;;13.32;;
58414;SDS011;44210;42.706;18.344;2022-08-25T04:23:38;16.38;;;12.73;;
58414;SDS011;44210;42.706;18.344;2022-08-25T04:26:12;13.45;;;11.98;;
58414;SDS011;44210;42.706;18.344;2022-08-25T04:28:38;14.63;;;12.05;;
58414;SDS011;44210;42.706;18.344;2022-08-25T04:31:08;13.55;;;12.15;;
58414;SDS011;44210;42.706;18.344;2022-08-25T04:33:35;17.70;;;12.73;;
58414;SDS011;44210;42.706;18.344;2022-08-25T04:36:01;14.63;;;13.13;;
58414;SDS011;44210;42.706;18.344;2022-08-25T04:38:27;14.38;;;12.23;;
58414;SDS011;44210;42.706;18.344;2022-08-25T04:40:58;17.05;;;12.80;;
58414;SDS011;44210;42.706;18.344;2022-08-25T04:43:25;14.35;;;12.85;;
58414;SDS011;44210;42.706;18.344;2022-08-25T04:45:51;15.80;;;13.80;;
58414;SDS011;44210;42.706;18.344;2022-08-25T04:48:18;14.75;;;13.07;;
58414;SDS011;44210;42.706;18.344;2022-08-25T04:50:44;16.88;;;12.27;;
58414;SDS011;44210;42.706;18.344;2022-08-25T04:53:10;15.02;;;12.63;;
58414;SDS011;44210;42.706;18.344;2022-08-25T04:55:43;14.23;;;12.80;;
58414;SDS011;44210;42.706;18.344;2022-08-25T04:58:10;15.60;;;12.63;;
58414;SDS011;44210;42.706;18.344;2022-08-25T05:00:36;13.13;;;11.75;;
58414;SDS011;44210;42.706;18.344;2022-08-25T05:03:02;17.25;;;12.13;;
58414;SDS011;44210;42.706;18.344;2022-08-25T05:05:29;15.02;;;13.10;;
58414;SDS011;44210;42.706;18.344;2022-08-25T05:07:56;15.60;;;12.90;;
58414;SDS011;44210;42.706;18.344;2022-08-25T05:10:22;18.10;;;13.93;;
58414;SDS011;44210;42.706;18.344;2022-08-25T05:12:48;14.13;;;12.73;;
58414;SDS011;44210;42.706;18.344;2022-08-25T05:15:14;14.70;;;12.38;;
58414;SDS011;44210;42.706;18.344;2022-08-25T05:17:59;17.75;;;12.88;;
58414;SDS011;44210;42.706;18.344;2022-08-25T05:20:25;14.50;;;12.00;;
58414;SDS011;44210;42.706;18.344;2022-08-25T05:22:51;13.63;;;12.30;;
58414;SDS011;44210;42.706;18.344;2022-08-25T05:25:17;14.00;;;12.52;;
58414;SDS011;44210;42.706;18.344;2022-08-25T05:27:43;14.95;;;12.10;;
58414;SDS011;44210;42.706;18.344;2022-08-25T05:30:09;13.68;;;12.00;;
58414;SDS011;44210;42.706;18.344;2022-08-25T05:32:36;14.73;;;13.23;;
58414;SDS011;44210;42.706;18.344;2022-08-25T05:35:03;14.18;;;12.40;;
58414;SDS011;44210;42.706;18.344;2022-08-25T05:37:29;15.73;;;12.57;;
58414;SDS011;44210;42.706;18.344;2022-08-25T05:39:55;14.25;;;12.90;;
58414;SDS011;44210;42.706;18.344;2022-08-25T05:42:21;13.25;;;11.73;;
58414;SDS011;44210;42.706;18.344;2022-08-25T05:44:47;18.25;;;12.93;;
58414;SDS011;44210;42.706;18.344;2022-08-25T05:47:14;14.13;;;12.73;;
58414;SDS011;44210;42.706;18.344;2022-08-25T05:49:40;13.15;;;11.77;;
58414;SDS011;44210;42.706;18.344;2022-08-25T05:52:06;14.25;;;12.85;;
58414;SDS011;44210;42.706;18.344;2022-08-25T05:54:32;16.02;;;12.45;;
58414;SDS011;44210;42.706;18.344;2022-08-25T05:56:58;14.13;;;12.60;;
58414;SDS011;44210;42.706;18.344;2022-08-25T05:59:25;14.40;;;12.18;;
58414;SDS011;44210;42.706;18.344;2022-08-25T06:01:51;14.00;;;12.18;;
58414;SDS011;44210;42.706;18.344;2022-08-25T06:04:35;14.55;;;12.32;;
58414;SDS011;44210;42.706;18.344;2022-08-25T06:07:01;13.70;;;12.23;;
58414;SDS011;44210;42.706;18.344;2022-08-25T06:09:28;13.60;;;11.93;;
58414;SDS011;44210;42.706;18.344;2022-08-25T06:11:54;15.40;;;12.35;;
58414;SDS011;44210;42.706;18.344;2022-08-25T06:14:20;17.58;;;12.13;;
58414;SDS011;44210;42.706;18.344;2022-08-25T06:16:46;14.35;;;11.27;;
58414;SDS011;44210;42.706;18.344;2022-08-25T06:19:15;14.05;;;12.65;;
58414;SDS011;44210;42.706;18.344;2022-08-25T06:21:41;12.98;;;11.52;;
58414;SDS011;44210;42.706;18.344;2022-08-25T06:24:08;12.38;;;11.18;;
58414;SDS011;44210;42.706;18.344;2022-08-25T06:26:35;13.65;;;12.38;;
58414;SDS011;44210;42.706;18.344;2022-08-25T06:29:02;13.23;;;11.35;;
58414;SDS011;44210;42.706;18.344;2022-08-25T06:31:28;11.82;;;10.63;;
58414;SDS011;44210;42.706;18.344;2022-08-25T06:33:54;13.13;;;11.70;;
58414;SDS011;44210;42.706;18.344;2022-08-25T06:36:22;12.50;;;10.98;;
58414;SDS011;44210;42.706;18.344;2022-08-25T06:38:48;12.40;;;10.93;;
58414;SDS011;44210;42.706;18.344;2022-08-25T06:41:14;10.43;;;9.32;;
58414;SDS011;44210;42.706;18.344;2022-08-25T06:43:41;14.77;;;10.27;;
58414;SDS011;44210;42.706;18.344;2022-08-25T06:46:14;11.85;;;10.55;;
58414;SDS011;44210;42.706;18.344;2022-08-25T06:48:40;10.25;;;9.30;;
58414;SDS011;44210;42.706;18.344;2022-08-25T06:51:07;11.40;;;10.27;;
58414;SDS011;44210;42.706;18.344;2022-08-25T06:53:33;13.85;;;9.52;;
58414;SDS011;44210;42.706;18.344;2022-08-25T06:56:00;10.60;;;9.50;;
58414;SDS011;44210;42.706;18.344;2022-08-25T06:58:26;10.38;;;9.05;;
58414;SDS011;44210;42.706;18.344;2022-08-25T07:00:52;10.93;;;9.82;;
58414;SDS011;44210;42.706;18.344;2022-08-25T07:03:18;11.90;;;9.63;;
58414;SDS011;44210;42.706;18.344;2022-08-25T07:05:51;11.52;;;10.32;;
58414;SDS011;44210;42.706;18.344;2022-08-25T07:08:17;13.73;;;10.38;;
58414;SDS011;44210;42.706;18.344;2022-08-25T07:10:44;10.77;;;9.68;;
58414;SDS011;44210;42.706;18.344;2022-08-25T07:13:10;11.43;;;9.63;;
58414;SDS011;44210;42.706;18.344;2022-08-25T07:15:40;11.13;;;10.05;;
58414;SDS011;44210;42.706;18.344;2022-08-25T07:18:06;10.52;;;9.50;;
58414;SDS011;44210;42.706;18.344;2022-08-25T07:20:33;10.48;;;9.48;;
58414;SDS011;44210;42.706;18.344;2022-08-25T07:22:59;10.15;;;9.15;;
58414;SDS011;44210;42.706;18.344;2022-08-25T07:25:25;12.88;;;9.57;;
58414;SDS011;44210;42.706;18.344;2022-08-25T07:27:51;10.35;;;9.35;;
58414;SDS011;44210;42.706;18.344;2022-08-25T07:30:18;10.70;;;9.60;;
58414;SDS011;44210;42.706;18.344;2022-08-25T07:32:44;10.52;;;9.63;;
58414;SDS011;44210;42.706;18.344;2022-08-25T07:35:10;12.68;;;9.65;;
58414;SDS011;44210;42.706;18.344;2022-08-25T07:37:43;10.73;;;9.65;;
58414;SDS011;44210;42.706;18.344;2022-08-25T07:40:15;10.85;;;9.70;;
58414;SDS011;44210;42.706;18.344;2022-08-25T07:42:41;12.70;;;10.57;;
58414;SDS011;44210;42.706;18.344;2022-08-25T07:45:08;11.63;;;10.13;;
58414;SDS011;44210;42.706;18.344;2022-08-25T07:47:35;13.10;;;10.68;;
58414;SDS011;44210;42.706;18.344;2022-08-25T07:50:01;11.60;;;10.00;;
58414;SDS011;44210;42.706;18.344;2022-08-25T07:52:27;11.93;;;10.32;;
58414;SDS011;44210;42.706;18.344;2022-08-25T07:54:53;11.18;;;10.02;;
58414;SDS011;44210;42.706;18.344;2022-08-25T07:57:19;10.75;;;9.70;;
58414;SDS011;44210;42.706;18.344;2022-08-25T07:59:46;11.07;;;9.98;;
58414;SDS011;44210;42.706;18.344;2022-08-25T08:02:12;12.07;;;10.13;;
58414;SDS011;44210;42.706;18.344;2022-08-25T08:04:39;11.05;;;9.70;;
58414;SDS011;44210;42.706;18.344;2022-08-25T08:07:07;11.15;;;10.05;;
58414;SDS011;44210;42.706;18.344;2022-08-25T08:09:33;11.38;;;10.05;;
58414;SDS011;44210;42.706;18.344;2022-08-25T08:11:59;12.35;;;10.32;;
58414;SDS011;44210;42.706;18.344;2022-08-25T08:14:25;10.98;;;9.85;;
58414;SDS011;44210;42.706;18.344;2022-08-25T08:16:51;10.85;;;9.75;;
58414;SDS011;44210;42.706;18.344;2022-08-25T08:19:18;13.00;;;10.07;;
58414;SDS011;44210;42.706;18.344;2022-08-25T08:21:44;10.30;;;9.30;;
58414;SDS011;44210;42.706;18.344;2022-08-25T08:24:11;11.35;;;10.18;;
58414;SDS011;44210;42.706;18.344;2022-08-25T08:26:37;10.40;;;9.27;;
58414;SDS011;44210;42.706;18.344;2022-08-25T08:29:03;11.82;;;9.15;;
58414;SDS011;44210;42.706;18.344;2022-08-25T08:31:29;11.98;;;10.15;;
58414;SDS011;44210;42.706;18.344;2022-08-25T08:33:55;12.10;;;9.30;;
58414;SDS011;44210;42.706;18.344;2022-08-25T08:36:22;11.05;;;9.68;;
58414;SDS011;44210;42.706;18.344;2022-08-25T08:38:50;10.10;;;9.10;;
58414;SDS011;44210;42.706;18.344;2022-08-25T08:44:20;11.55;;;9.02;;
58414;SDS011;44210;42.706;18.344;2022-08-25T08:46:57;11.40;;;8.90;;
58414;SDS011;44210;42.706;18.344;2022-08-25T08:49:26;10.68;;;9.55;;
58414;SDS011;44210;42.706;18.344;2022-08-25T08:51:57;13.50;;;8.97;;
58414;SDS011;44210;42.706;18.344;2022-08-25T08:54:24;10.95;;;9.00;;
58414;SDS011;44210;42.706;18.344;2022-08-25T08:57:10;10.02;;;8.70;;
58414;SDS011;44210;42.706;18.344;2022-08-25T08:59:40;13.98;;;8.82;;
58414;SDS011;44210;42.706;18.344;2022-08-25T09:02:12;9.90;;;8.95;;
